Portada
METAR-TAF:

METAR-TAF

Aeropuertos :

Bloomington / Normal, Illinois, Estados Unidos

latitud: 40-29N, longitud: 088-55W, altitud: 267 m

Observación

El informe se hizo hace 27 minutos, a las 19:56 UTC
Viento 15 kt del sur-suroeste con ráfagas de 19 kt
Temperatura 33°C
Humedad 41%
Presión 1023 hPa
Visibilidad: 11.3 km
Cielo nuboso a una altura de 8000 ft

METAR: KBMI 191956Z 20015G19KT 7SM BKN080 33/18 A3021 RMK AO2 SLP219 T03280183

Hora: 15:23 (20:23 UTC)

Pronóstico

El informe se hizo hace 3 horas y 3 minutos, a las 17:20 UTC
Pronóstico válido del 19 a las 18 UTC al 20 a las 18 UTC
Viento 12 kt del sur-suroeste
Visibilidad: 10 km
Nubes dispersas a una altura de 4000 ft
Nubes dispersas a una altura de 12000 ft
A partir de las 20 a las 0100 UTC
Viento 6 kt del sur
Visibilidad: 10 km
Nubes dispersas a una altura de 12000 ft

TAF: KBMI 191720Z 1918/2018 20012KT P6SM SCT040 SCT120 FM200100 17006KT P6SM SCT120

Observaciones y pronósticos meteorológicos de más de 4000 aeropuertos (mensajes METAR y TAF).

Los puntos amarillos y rojos representan las estaciones disponibles.

Ponga el ratón en el punto deseado para ver el nombre de la estación.

Haga clic para ver las observaciones y los pronósticos meteorológicos.

Para cambiar el mapa : haga clic en los botones verdes con una cruz de color negro para hacer un zoom, en el botón verde con un guión para alejar o en las flechas verdes para mapas adyacentes.


METAR-TAF: